M S San Francisco — WZC3886 — position and weather

sailwx.info

Track history (hours):
 
Tides and Currents Weather Stations Pressure Air Temp Water Temp Dewpoint Dewpoint Depression Visibility Wind Speed Wind Dir Waves Ship Positions

M S San Francisco

Owner: GOLDEN GATE BRIDGE HWY & TRANSP DISTRICT, LARKSPUR, CA. More information available from US FCC via Universal Licensing System and Coast Guard Vessel Documentation Center.

Last reported at 2018-Apr-24 23:01 UTC. Time now 2018-Apr-24 23:06 UTC.
Position N 37°48' W 122°23'.

Length 58 m.

Type: Passenger vessel. MMSI: 366963980.

Date/timePositionNaut miles runAvg speedWind from/ knotsBaromVisibWave heightAir tempDewpointWater temp
2018-Apr-24 23:01N 37°48' W 122°23'917.0
2018-Apr-24 22:30N 37°56' W 122°28'2 4.6
2018-Apr-24 22:00N 37°57' W 122°31'0 0.0
2018-Apr-24 21:30N 37°57' W 122°31'0 0.0
2018-Apr-24 21:00N 37°57' W 122°31'0 0.0
2018-Apr-24 20:30N 37°57' W 122°31'0 0.0
2018-Apr-24 20:00N 37°57' W 122°31'0 0.0
2018-Apr-24 19:30N 37°57' W 122°31'0 0.0
2018-Apr-24 19:00N 37°57' W 122°31'0 0.0
2018-Apr-24 18:30N 37°57' W 122°31'0 0.0
2018-Apr-24 18:00N 37°57' W 122°31'1 2.6
2018-Apr-24 17:30N 37°56' W 122°29'815.9
2018-Apr-24 17:00N 37°50' W 122°23'1 1.3
2018-Apr-24 16:30N 37°49' W 122°24'4 7.1
2018-Apr-24 16:00N 37°52' W 122°27'510.1
2018-Apr-24 15:30N 37°48' W 122°24'510.9
2018-Apr-24 15:00N 37°52' W 122°27'4 7.0
2018-Apr-24 14:30N 37°50' W 122°24'1 1.3
2018-Apr-24 14:00N 37°50' W 122°25'3 6.2
2018-Apr-24 13:30N 37°52' W 122°27'510.6
2018-Apr-24 13:00N 37°48' W 122°24'510.9
2018-Apr-24 12:30N 37°52' W 122°27'4 8.0
2018-Apr-24 12:00N 37°56' W 122°29'1 0.1
2018-Apr-24 04:24N 37°57' W 122°31'2 5.6
2018-Apr-24 04:01N 37°56' W 122°28'3 6.8
2018-Apr-24 03:31N 37°52' W 122°27'510.9
2018-Apr-24 03:01N 37°48' W 122°24'510.9
2018-Apr-24 02:30N 37°52' W 122°27'510.9
2018-Apr-24 02:00N 37°48' W 122°23'510.0
2018-Apr-24 01:31N 37°52' W 122°27'2 4.7
2018-Apr-24 01:01N 37°50' W 122°25'3 5.6
2018-Apr-24 00:30N 37°48' W 122°23'611.1
2018-Apr-24 00:01N 37°52' W 122°27'510.8
2018-Apr-23 23:30N 37°48' W 122°23'1 1.7
2018-Apr-23 23:01N 37°49' W 122°23'816.9
2018-Apr-23 22:30N 37°56' W 122°29'2 3.1
2018-Apr-23 22:00N 37°57' W 122°31'0 0.0
2018-Apr-23 21:30N 37°57' W 122°31'0 0.1
2018-Apr-23 21:00N 37°57' W 122°30'0 0.1
2018-Apr-23 20:30N 37°57' W 122°31'0 0.0
2018-Apr-23 20:00N 37°57' W 122°31'0 0.0
2018-Apr-23 19:30N 37°57' W 122°31'0 0.0
2018-Apr-23 19:00N 37°57' W 122°31'0 0.0
2018-Apr-23 18:30N 37°57' W 122°31'0 0.0
2018-Apr-23 18:00N 37°57' W 122°31'1 1.5
2018-Apr-23 17:30N 37°56' W 122°30'713.2
2018-Apr-23 17:00N 37°51' W 122°24'2 4.4
2018-Apr-23 16:31N 37°49' W 122°24'4 8.0
2018-Apr-23 16:00N 37°52' W 122°27'510.6
2018-Apr-23 15:30N 37°48' W 122°24'510.7
2018-Apr-23 15:00N 37°52' W 122°27'4 7.0
2018-Apr-23 14:31N 37°50' W 122°24'1 1.3
2018-Apr-23 14:00N 37°50' W 122°25'3 6.4
2018-Apr-23 13:31N 37°52' W 122°27'510.8
2018-Apr-23 13:00N 37°48' W 122°24'510.9
2018-Apr-23 12:30N 37°52' W 122°27'4 7.3
2018-Apr-23 12:01N 37°56' W 122°29'2 0.2
2018-Apr-23 03:18N 37°57' W 122°31'1 4.9
2018-Apr-23 03:00N 37°56' W 122°29'918.0
2018-Apr-23 02:31N 37°48' W 122°23'2 3.8
2018-Apr-23 02:00N 37°50' W 122°25'3 6.8
2018-Apr-23 01:30N 37°51' W 122°29'510.6
2018-Apr-23 01:00N 37°48' W 122°24'0 0.2
2018-Apr-23 00:30N 37°48' W 122°24'917.7
2018-Apr-23 00:00N 37°56' W 122°28'2 4.1
2018-Apr-22 23:30N 37°57' W 122°30'815.1
2018-Apr-22 23:01N 37°51' W 122°24'3 6.8
2018-Apr-22 22:30N 37°48' W 122°24'0 0.1
2018-Apr-22 22:00N 37°48' W 122°24'0 0.2
2018-Apr-22 21:30N 37°48' W 122°23'918.4
2018-Apr-22 21:00N 37°56' W 122°29'1 2.5
2018-Apr-22 20:30N 37°57' W 122°30'612.5
2018-Apr-22 20:00N 37°52' W 122°25'4 8.7
2018-Apr-22 19:30N 37°48' W 122°23'918.4
2018-Apr-22 19:00N 37°56' W 122°29'1 2.5
2018-Apr-22 18:30N 37°57' W 122°31'0 0.0
2018-Apr-22 18:00N 37°57' W 122°31'2 0.1
2018-Apr-22 02:02N 37°56' W 122°29'0 9.8
2018-Apr-22 02:00N 37°56' W 122°28'917.5
2018-Apr-22 01:30N 37°48' W 122°23'0 0.4
2018-Apr-22 01:00N 37°48' W 122°23'511.0
2018-Apr-22 00:30N 37°51' W 122°29'1 2.2
2018-Apr-22 00:00N 37°51' W 122°27'4 8.9
2018-Apr-21 23:30N 37°48' W 122°24'3 7.0
2018-Apr-21 23:00N 37°50' W 122°27'2 3.9
2018-Apr-21 22:30N 37°51' W 122°29'510.9
2018-Apr-21 22:01N 37°48' W 122°23'3 5.6
2018-Apr-21 21:31N 37°50' W 122°25'3 5.9
2018-Apr-21 21:00N 37°51' W 122°29'510.9
2018-Apr-21 20:31N 37°48' W 122°23'2 4.5
2018-Apr-21 20:01N 37°50' W 122°25'3 6.5
2018-Apr-21 19:30N 37°51' W 122°29'510.8
2018-Apr-21 19:00N 37°48' W 122°24'3 6.5
2018-Apr-21 18:30N 37°50' W 122°26'1 2.8
2018-Apr-21 18:00N 37°51' W 122°28'5 9.2
2018-Apr-21 17:30N 37°48' W 122°24'611.1
2018-Apr-21 17:00N 37°53' W 122°26'510.4
2018-Apr-21 16:30N 37°57' W 122°31'0 0.0
2018-Apr-21 04:20N 37°57' W 122°30'3 9.2
2018-Apr-21 04:00N 37°55' W 122°27'3 5.4
2018-Apr-21 03:30N 37°52' W 122°27'510.9
2018-Apr-21 03:01N 37°48' W 122°24'510.8
2018-Apr-21 02:30N 37°52' W 122°27'511.0
2018-Apr-21 02:01N 37°48' W 122°24'510.0
2018-Apr-21 01:30N 37°52' W 122°27'2 4.0
2018-Apr-21 01:00N 37°51' W 122°25'3 5.3
2018-Apr-21 00:30N 37°48' W 122°23'510.1
2018-Apr-21 00:00N 37°52' W 122°27'510.7
2018-Apr-20 23:30N 37°48' W 122°23'1 1.9
2018-Apr-20 23:00N 37°49' W 122°23'816.8
2018-Apr-20 22:30N 37°56' W 122°29'1 2.7
2018-Apr-20 22:00N 37°57' W 122°31'0 0.0
2018-Apr-20 21:30N 37°57' W 122°31'0 0.0
2018-Apr-20 21:00N 37°57' W 122°31'0 0.0
2018-Apr-20 20:30N 37°57' W 122°31'0 0.0
2018-Apr-20 20:00N 37°57' W 122°31'0 0.0
2018-Apr-20 19:30N 37°57' W 122°31'0 0.0
2018-Apr-20 19:00N 37°57' W 122°31'0 0.0
2018-Apr-20 18:30N 37°57' W 122°31'0 0.0
2018-Apr-20 18:00N 37°57' W 122°31'1 2.8
2018-Apr-20 17:30N 37°56' W 122°29'612.5
2018-Apr-20 17:00N 37°51' W 122°24'2 4.1
2018-Apr-20 16:30N 37°49' W 122°24'4 8.4
2018-Apr-20 16:00N 37°52' W 122°27'510.7
2018-Apr-20 15:30N 37°48' W 122°24'510.6
2018-Apr-20 15:00N 37°52' W 122°27'3 6.7
2018-Apr-20 14:30N 37°50' W 122°24'1 1.0
2018-Apr-20 14:01N 37°50' W 122°25'3 6.9
2018-Apr-20 13:31N 37°52' W 122°27'510.8
2018-Apr-20 13:00N 37°48' W 122°24'510.9
2018-Apr-20 12:30N 37°52' W 122°27'3 6.4
2018-Apr-20 12:00N 37°56' W 122°28'2 0.3
2018-Apr-20 04:19N 37°57' W 122°31'2 7.6
2018-Apr-20 04:00N 37°56' W 122°28'3 6.6
2018-Apr-20 03:30N 37°52' W 122°27'510.9
2018-Apr-20 03:00N 37°48' W 122°24'511.0
2018-Apr-20 02:31N 37°52' W 122°27'510.2
2018-Apr-20 02:01N 37°48' W 122°23'3 6.9
2018-Apr-20 01:30N 37°51' W 122°26'1 1.1
2018-Apr-20 01:00N 37°51' W 122°26'3 5.9
2018-Apr-20 00:31N 37°48' W 122°24'510.2
2018-Apr-20 00:00N 37°52' W 122°27'510.9
2018-Apr-19 23:30N 37°48' W 122°23'0 0.2
2018-Apr-19 23:01N 37°48' W 122°23'510.8
2018-Apr-19 22:30N 37°53' W 122°26'510.6
2018-Apr-19 22:01N 37°57' W 122°31'0 0.0
2018-Apr-19 21:31N 37°57' W 122°31'0 0.0
2018-Apr-19 21:00N 37°57' W 122°31'0 0.0
2018-Apr-19 20:30N 37°57' W 122°31'0 0.0
2018-Apr-19 20:01N 37°57' W 122°31'0 0.0
2018-Apr-19 19:30N 37°57' W 122°31'0 0.0
2018-Apr-19 19:00N 37°57' W 122°31'0 0.0
2018-Apr-19 18:30N 37°57' W 122°31'0 0.1
2018-Apr-19 18:01N 37°57' W 122°30'1 2.3
2018-Apr-19 17:31N 37°56' W 122°29'714.3
2018-Apr-19 17:00N 37°50' W 122°24'1 2.7
2018-Apr-19 16:30N 37°49' W 122°24'4 8.5
2018-Apr-19 16:01N 37°52' W 122°27'510.5
2018-Apr-19 15:30N 37°48' W 122°24'510.5
2018-Apr-19 15:01N 37°52' W 122°27'3 6.5
2018-Apr-19 14:31N 37°50' W 122°24'1 1.3
2018-Apr-19 14:00N 37°50' W 122°25'3 6.4
2018-Apr-19 13:31N 37°52' W 122°27'510.8
2018-Apr-19 13:00N 37°48' W 122°24'511.0
2018-Apr-19 12:30N 37°52' W 122°27'3 6.9
2018-Apr-19 12:00N 37°56' W 122°28'2 0.3
2018-Apr-19 04:21N 37°57' W 122°31'3 7.5
2018-Apr-19 04:01N 37°55' W 122°28'3 6.1
2018-Apr-19 03:30N 37°52' W 122°27'511.0
2018-Apr-19 03:00N 37°48' W 122°24'511.0
2018-Apr-19 02:30N 37°52' W 122°27'510.8
2018-Apr-19 02:00N 37°48' W 122°23'4 8.4
2018-Apr-19 01:30N 37°51' W 122°27'1 1.7
2018-Apr-19 01:00N 37°51' W 122°26'3 5.7
2018-Apr-19 00:31N 37°48' W 122°24'5 9.8
2018-Apr-19 00:01N 37°52' W 122°27'510.7
2018-Apr-18 23:30N 37°48' W 122°23'0 0.6
2018-Apr-18 23:00N 37°48' W 122°23'917.7
2018-Apr-18 22:30N 37°56' W 122°29'1 3.0
2018-Apr-18 22:01N 37°57' W 122°31'0 0.0
2018-Apr-18 21:30N 37°57' W 122°31'0 0.0
2018-Apr-18 21:00N 37°57' W 122°31'0 0.0
2018-Apr-18 20:30N 37°57' W 122°31'0 0.0
2018-Apr-18 20:00N 37°57' W 122°31'0 0.0
2018-Apr-18 19:30N 37°57' W 122°31'0 0.0
2018-Apr-18 19:01N 37°57' W 122°31'0 0.0
2018-Apr-18 18:30N 37°57' W 122°31'0 0.2
2018-Apr-18 18:00N 37°57' W 122°30'1 1.8
2018-Apr-18 17:30N 37°56' W 122°30'612.7
2018-Apr-18 17:01N 37°52' W 122°24'3 5.8
2018-Apr-18 16:30N 37°49' W 122°24'5 9.2
2018-Apr-18 16:01N 37°52' W 122°27'510.8
2018-Apr-18 15:31N 37°48' W 122°24'510.6
2018-Apr-18 15:00N 37°52' W 122°27'4 7.1
2018-Apr-18 14:31N 37°50' W 122°24'1 1.5
2018-Apr-18 14:00N 37°50' W 122°25'3 6.5
2018-Apr-18 13:30N 37°52' W 122°27'510.8
2018-Apr-18 13:00N 37°48' W 122°24'511.0
2018-Apr-18 12:31N 37°52' W 122°27'3 6.3
2018-Apr-18 12:00N 37°55' W 122°28'3 0.3
2018-Apr-18 04:26N 37°57' W 122°31'2 5.4
2018-Apr-18 04:00N 37°56' W 122°28'3 6.7
2018-Apr-18 03:31N 37°52' W 122°27'510.9
2018-Apr-18 03:00N 37°48' W 122°24'511.0
2018-Apr-18 02:31N 37°52' W 122°27'510.9
2018-Apr-18 02:00N 37°48' W 122°23'510.0
2018-Apr-18 01:30N 37°52' W 122°27'4 7.7
2018-Apr-18 01:00N 37°49' W 122°24'1 1.7
2018-Apr-18 00:30N 37°49' W 122°24'5 9.6
2018-Apr-18 00:00N 37°52' W 122°27'510.9
2018-Apr-17 23:30N 37°48' W 122°23'1 1.1
2018-Apr-17 23:01N 37°48' W 122°24'714.9
2018-Apr-17 22:30N 37°55' W 122°28'3 5.7
2018-Apr-17 22:00N 37°57' W 122°31'0 0.0
2018-Apr-17 21:31N 37°57' W 122°31'0 0.0
2018-Apr-17 21:00N 37°57' W 122°31'0 0.0
2018-Apr-17 20:30N 37°57' W 122°31'0 0.0
2018-Apr-17 20:00N 37°57' W 122°31'0 0.0
2018-Apr-17 19:30N 37°57' W 122°31'0 0.0
2018-Apr-17 19:00N 37°57' W 122°31'0 0.0
2018-Apr-17 18:30N 37°57' W 122°31'0 0.0
2018-Apr-17 18:00N 37°57' W 122°31'1 1.5
2018-Apr-17 17:30N 37°56' W 122°30'713.3
2018-Apr-17 17:00N 37°52' W 122°24'3 5.2
2018-Apr-17 16:30N 37°49' W 122°24'4 7.8
2018-Apr-17 16:00N 37°52' W 122°27'510.2
2018-Apr-17 15:30N 37°48' W 122°24'510.9
2018-Apr-17 15:00N 37°52' W 122°27'4 7.6
2018-Apr-17 14:31N 37°50' W 122°24'1 2.3
2018-Apr-17 14:00N 37°50' W 122°25'3 5.7
2018-Apr-17 13:30N 37°52' W 122°27'510.6
2018-Apr-17 13:00N 37°48' W 122°24'511.0
2018-Apr-17 12:30N 37°52' W 122°27'4 8.8
2018-Apr-17 12:01N 37°56' W 122°30'1 0.1
2018-Apr-17 04:30N 37°57' W 122°31'3 5.5
2018-Apr-17 04:00N 37°55' W 122°28'3 6.3
2018-Apr-17 03:31N 37°52' W 122°27'510.7
2018-Apr-17 03:00N 37°48' W 122°24'511.0
2018-Apr-17 02:31N 37°52' W 122°27'510.8
2018-Apr-17 02:01N 37°48' W 122°23'4 8.6
2018-Apr-17 01:30N 37°51' W 122°27'2 3.2
2018-Apr-17 01:01N 37°50' W 122°25'2 3.2
2018-Apr-17 00:30N 37°49' W 122°24'4 8.4
2018-Apr-17 00:00N 37°52' W 122°27'510.7
2018-Apr-16 23:30N 37°48' W 122°23'0 1.0
2018-Apr-16 23:01N 37°48' W 122°24'815.7
2018-Apr-16 22:30N 37°56' W 122°28'2 4.5
2018-Apr-16 22:01N 37°57' W 122°31'0 0.0
2018-Apr-16 21:30N 37°57' W 122°31'0 0.0
2018-Apr-16 21:01N 37°57' W 122°31'0 0.1
2018-Apr-16 20:31N 37°57' W 122°30'0 0.1
2018-Apr-16 20:00N 37°57' W 122°31'0 0.1
2018-Apr-16 19:31N 37°57' W 122°30'0 0.0
2018-Apr-16 19:00N 37°57' W 122°30'0 0.1
2018-Apr-16 18:31N 37°57' W 122°31'0 0.1
2018-Apr-16 18:01N 37°57' W 122°30'0 0.4
2018-Apr-16 17:31N 37°57' W 122°30'714.0
2018-Apr-16 17:01N 37°52' W 122°24'2 4.6
2018-Apr-16 16:30N 37°49' W 122°24'4 7.8
2018-Apr-16 16:00N 37°52' W 122°27'510.7
2018-Apr-16 15:30N 37°48' W 122°24'510.8
2018-Apr-16 15:00N 37°52' W 122°27'4 7.6
2018-Apr-16 14:30N 37°50' W 122°24'1 1.3
2018-Apr-16 14:00N 37°50' W 122°24'4 7.1
2018-Apr-16 13:31N 37°52' W 122°27'510.9
2018-Apr-16 13:00N 37°48' W 122°24'510.9
2018-Apr-16 12:30N 37°52' W 122°27'5 9.6
2018-Apr-16 12:00N 37°57' W 122°30'0 0.0
2018-Apr-16 03:17N 37°57' W 122°31'2 8.0
2018-Apr-16 03:01N 37°56' W 122°28'917.3
2018-Apr-16 02:31N 37°48' W 122°24'2 4.0
2018-Apr-16 02:00N 37°50' W 122°25'4 7.2
2018-Apr-16 01:30N 37°51' W 122°29'510.8
2018-Apr-16 01:01N 37°48' W 122°24'0 0.0
2018-Apr-16 00:30N 37°48' W 122°24'917.1
2018-Apr-16 00:00N 37°56' W 122°28'2 3.7
2018-Apr-15 23:29N 37°57' W 122°30'613.1
2018-Apr-15 23:00N 37°52' W 122°25'4 8.7
2018-Apr-15 22:30N 37°48' W 122°24'0 0.1
2018-Apr-15 22:00N 37°48' W 122°24'0 0.0
2018-Apr-15 21:31N 37°48' W 122°24'815.9
2018-Apr-15 21:01N 37°55' W 122°27'3 5.9
2018-Apr-15 20:30N 37°57' W 122°31'510.9
2018-Apr-15 20:00N 37°53' W 122°25'611.2
2018-Apr-15 19:31N 37°48' W 122°24'815.7
2018-Apr-15 19:00N 37°55' W 122°27'3 6.1
2018-Apr-15 18:30N 37°57' W 122°31'0 0.0
2018-Apr-15 02:27N 37°57' W 122°31'3 6.2
2018-Apr-15 02:00N 37°55' W 122°28'816.4
2018-Apr-15 01:30N 37°48' W 122°24'0 0.7
2018-Apr-15 01:00N 37°48' W 122°23'510.8
2018-Apr-15 00:30N 37°51' W 122°29'1 1.2
2018-Apr-15 00:01N 37°51' W 122°28'5 9.7
2018-Apr-14 23:30N 37°48' W 122°24'3 6.4
2018-Apr-14 23:01N 37°50' W 122°26'  
Track history (hours):
 
Tides and Currents Weather Stations Pressure Air Temp Water Temp Dewpoint Dewpoint Depression Visibility Wind Speed Wind Dir Waves Ship Positions

M S San Francisco

Owner: GOLDEN GATE BRIDGE HWY & TRANSP DISTRICT, LARKSPUR, CA. More information available from US FCC via Universal Licensing System and Coast Guard Vessel Documentation Center.

Last reported at 2018-Apr-24 23:01 UTC. Time now 2018-Apr-24 23:06 UTC.
Position N 37°48' W 122°23'.

Length 58 m.

Type: Passenger vessel. MMSI: 366963980.

Date/timePositionNaut miles runAvg speedWind from/ knotsBaromVisibWave heightAir tempDewpointWater temp
2018-Apr-24 23:01N 37°48' W 122°23'917.0
2018-Apr-24 22:30N 37°56' W 122°28'2 4.6
2018-Apr-24 22:00N 37°57' W 122°31'0 0.0
2018-Apr-24 21:30N 37°57' W 122°31'0 0.0
2018-Apr-24 21:00N 37°57' W 122°31'0 0.0
2018-Apr-24 20:30N 37°57' W 122°31'0 0.0
2018-Apr-24 20:00N 37°57' W 122°31'0 0.0
2018-Apr-24 19:30N 37°57' W 122°31'0 0.0
2018-Apr-24 19:00N 37°57' W 122°31'0 0.0
2018-Apr-24 18:30N 37°57' W 122°31'0 0.0
2018-Apr-24 18:00N 37°57' W 122°31'1 2.6
2018-Apr-24 17:30N 37°56' W 122°29'815.9
2018-Apr-24 17:00N 37°50' W 122°23'1 1.3
2018-Apr-24 16:30N 37°49' W 122°24'4 7.1
2018-Apr-24 16:00N 37°52' W 122°27'510.1
2018-Apr-24 15:30N 37°48' W 122°24'510.9
2018-Apr-24 15:00N 37°52' W 122°27'4 7.0
2018-Apr-24 14:30N 37°50' W 122°24'1 1.3
2018-Apr-24 14:00N 37°50' W 122°25'3 6.2
2018-Apr-24 13:30N 37°52' W 122°27'510.6
2018-Apr-24 13:00N 37°48' W 122°24'510.9
2018-Apr-24 12:30N 37°52' W 122°27'4 8.0
2018-Apr-24 12:00N 37°56' W 122°29'1 0.1
2018-Apr-24 04:24N 37°57' W 122°31'2 5.6
2018-Apr-24 04:01N 37°56' W 122°28'3 6.8
2018-Apr-24 03:31N 37°52' W 122°27'510.9
2018-Apr-24 03:01N 37°48' W 122°24'510.9
2018-Apr-24 02:30N 37°52' W 122°27'510.9
2018-Apr-24 02:00N 37°48' W 122°23'510.0
2018-Apr-24 01:31N 37°52' W 122°27'2 4.7
2018-Apr-24 01:01N 37°50' W 122°25'3 5.6
2018-Apr-24 00:30N 37°48' W 122°23'611.1
2018-Apr-24 00:01N 37°52' W 122°27'510.8
2018-Apr-23 23:30N 37°48' W 122°23'1 1.7
2018-Apr-23 23:01N 37°49' W 122°23'816.9
2018-Apr-23 22:30N 37°56' W 122°29'2 3.1
2018-Apr-23 22:00N 37°57' W 122°31'0 0.0
2018-Apr-23 21:30N 37°57' W 122°31'0 0.1
2018-Apr-23 21:00N 37°57' W 122°30'0 0.1
2018-Apr-23 20:30N 37°57' W 122°31'0 0.0
2018-Apr-23 20:00N 37°57' W 122°31'0 0.0
2018-Apr-23 19:30N 37°57' W 122°31'0 0.0
2018-Apr-23 19:00N 37°57' W 122°31'0 0.0
2018-Apr-23 18:30N 37°57' W 122°31'0 0.0
2018-Apr-23 18:00N 37°57' W 122°31'1 1.5
2018-Apr-23 17:30N 37°56' W 122°30'713.2
2018-Apr-23 17:00N 37°51' W 122°24'2 4.4
2018-Apr-23 16:31N 37°49' W 122°24'4 8.0
2018-Apr-23 16:00N 37°52' W 122°27'510.6
2018-Apr-23 15:30N 37°48' W 122°24'510.7
2018-Apr-23 15:00N 37°52' W 122°27'4 7.0
2018-Apr-23 14:31N 37°50' W 122°24'1 1.3
2018-Apr-23 14:00N 37°50' W 122°25'3 6.4
2018-Apr-23 13:31N 37°52' W 122°27'510.8
2018-Apr-23 13:00N 37°48' W 122°24'510.9
2018-Apr-23 12:30N 37°52' W 122°27'4 7.3
2018-Apr-23 12:01N 37°56' W 122°29'2 0.2
2018-Apr-23 03:18N 37°57' W 122°31'1 4.9
2018-Apr-23 03:00N 37°56' W 122°29'918.0
2018-Apr-23 02:31N 37°48' W 122°23'2 3.8
2018-Apr-23 02:00N 37°50' W 122°25'3 6.8
2018-Apr-23 01:30N 37°51' W 122°29'510.6
2018-Apr-23 01:00N 37°48' W 122°24'0 0.2
2018-Apr-23 00:30N 37°48' W 122°24'917.7
2018-Apr-23 00:00N 37°56' W 122°28'2 4.1
2018-Apr-22 23:30N 37°57' W 122°30'815.1
2018-Apr-22 23:01N 37°51' W 122°24'3 6.8
2018-Apr-22 22:30N 37°48' W 122°24'0 0.1
2018-Apr-22 22:00N 37°48' W 122°24'0 0.2
2018-Apr-22 21:30N 37°48' W 122°23'918.4
2018-Apr-22 21:00N 37°56' W 122°29'1 2.5
2018-Apr-22 20:30N 37°57' W 122°30'612.5
2018-Apr-22 20:00N 37°52' W 122°25'4 8.7
2018-Apr-22 19:30N 37°48' W 122°23'918.4
2018-Apr-22 19:00N 37°56' W 122°29'1 2.5
2018-Apr-22 18:30N 37°57' W 122°31'0 0.0
2018-Apr-22 18:00N 37°57' W 122°31'2 0.1
2018-Apr-22 02:02N 37°56' W 122°29'0 9.8
2018-Apr-22 02:00N 37°56' W 122°28'917.5
2018-Apr-22 01:30N 37°48' W 122°23'0 0.4
2018-Apr-22 01:00N 37°48' W 122°23'511.0
2018-Apr-22 00:30N 37°51' W 122°29'1 2.2
2018-Apr-22 00:00N 37°51' W 122°27'4 8.9
2018-Apr-21 23:30N 37°48' W 122°24'3 7.0
2018-Apr-21 23:00N 37°50' W 122°27'2 3.9
2018-Apr-21 22:30N 37°51' W 122°29'510.9
2018-Apr-21 22:01N 37°48' W 122°23'3 5.6
2018-Apr-21 21:31N 37°50' W 122°25'3 5.9
2018-Apr-21 21:00N 37°51' W 122°29'510.9
2018-Apr-21 20:31N 37°48' W 122°23'2 4.5
2018-Apr-21 20:01N 37°50' W 122°25'3 6.5
2018-Apr-21 19:30N 37°51' W 122°29'510.8
2018-Apr-21 19:00N 37°48' W 122°24'3 6.5
2018-Apr-21 18:30N 37°50' W 122°26'1 2.8
2018-Apr-21 18:00N 37°51' W 122°28'5 9.2
2018-Apr-21 17:30N 37°48' W 122°24'611.1
2018-Apr-21 17:00N 37°53' W 122°26'510.4
2018-Apr-21 16:30N 37°57' W 122°31'0 0.0
2018-Apr-21 04:20N 37°57' W 122°30'3 9.2
2018-Apr-21 04:00N 37°55' W 122°27'3 5.4
2018-Apr-21 03:30N 37°52' W 122°27'510.9
2018-Apr-21 03:01N 37°48' W 122°24'510.8
2018-Apr-21 02:30N 37°52' W 122°27'511.0
2018-Apr-21 02:01N 37°48' W 122°24'510.0
2018-Apr-21 01:30N 37°52' W 122°27'2 4.0
2018-Apr-21 01:00N 37°51' W 122°25'3 5.3
2018-Apr-21 00:30N 37°48' W 122°23'510.1
2018-Apr-21 00:00N 37°52' W 122°27'510.7
2018-Apr-20 23:30N 37°48' W 122°23'1 1.9
2018-Apr-20 23:00N 37°49' W 122°23'816.8
2018-Apr-20 22:30N 37°56' W 122°29'1 2.7
2018-Apr-20 22:00N 37°57' W 122°31'0 0.0
2018-Apr-20 21:30N 37°57' W 122°31'0 0.0
2018-Apr-20 21:00N 37°57' W 122°31'0 0.0
2018-Apr-20 20:30N 37°57' W 122°31'0 0.0
2018-Apr-20 20:00N 37°57' W 122°31'0 0.0
2018-Apr-20 19:30N 37°57' W 122°31'0 0.0
2018-Apr-20 19:00N 37°57' W 122°31'0 0.0
2018-Apr-20 18:30N 37°57' W 122°31'0 0.0
2018-Apr-20 18:00N 37°57' W 122°31'1 2.8
2018-Apr-20 17:30N 37°56' W 122°29'612.5
2018-Apr-20 17:00N 37°51' W 122°24'2 4.1
2018-Apr-20 16:30N 37°49' W 122°24'4 8.4
2018-Apr-20 16:00N 37°52' W 122°27'510.7
2018-Apr-20 15:30N 37°48' W 122°24'510.6
2018-Apr-20 15:00N 37°52' W 122°27'3 6.7
2018-Apr-20 14:30N 37°50' W 122°24'1 1.0
2018-Apr-20 14:01N 37°50' W 122°25'3 6.9
2018-Apr-20 13:31N 37°52' W 122°27'510.8
2018-Apr-20 13:00N 37°48' W 122°24'510.9
2018-Apr-20 12:30N 37°52' W 122°27'3 6.4
2018-Apr-20 12:00N 37°56' W 122°28'2 0.3
2018-Apr-20 04:19N 37°57' W 122°31'2 7.6
2018-Apr-20 04:00N 37°56' W 122°28'3 6.6
2018-Apr-20 03:30N 37°52' W 122°27'510.9
2018-Apr-20 03:00N 37°48' W 122°24'511.0
2018-Apr-20 02:31N 37°52' W 122°27'510.2
2018-Apr-20 02:01N 37°48' W 122°23'3 6.9
2018-Apr-20 01:30N 37°51' W 122°26'1 1.1
2018-Apr-20 01:00N 37°51' W 122°26'3 5.9
2018-Apr-20 00:31N 37°48' W 122°24'510.2
2018-Apr-20 00:00N 37°52' W 122°27'510.9
2018-Apr-19 23:30N 37°48' W 122°23'0 0.2
2018-Apr-19 23:01N 37°48' W 122°23'510.8
2018-Apr-19 22:30N 37°53' W 122°26'510.6
2018-Apr-19 22:01N 37°57' W 122°31'0 0.0
2018-Apr-19 21:31N 37°57' W 122°31'0 0.0
2018-Apr-19 21:00N 37°57' W 122°31'0 0.0
2018-Apr-19 20:30N 37°57' W 122°31'0 0.0
2018-Apr-19 20:01N 37°57' W 122°31'0 0.0
2018-Apr-19 19:30N 37°57' W 122°31'0 0.0
2018-Apr-19 19:00N 37°57' W 122°31'0 0.0
2018-Apr-19 18:30N 37°57' W 122°31'0 0.1
2018-Apr-19 18:01N 37°57' W 122°30'1 2.3
2018-Apr-19 17:31N 37°56' W 122°29'714.3
2018-Apr-19 17:00N 37°50' W 122°24'1 2.7
2018-Apr-19 16:30N 37°49' W 122°24'4 8.5
2018-Apr-19 16:01N 37°52' W 122°27'510.5
2018-Apr-19 15:30N 37°48' W 122°24'510.5
2018-Apr-19 15:01N 37°52' W 122°27'3 6.5
2018-Apr-19 14:31N 37°50' W 122°24'1 1.3
2018-Apr-19 14:00N 37°50' W 122°25'3 6.4
2018-Apr-19 13:31N 37°52' W 122°27'510.8
2018-Apr-19 13:00N 37°48' W 122°24'511.0
2018-Apr-19 12:30N 37°52' W 122°27'3 6.9
2018-Apr-19 12:00N 37°56' W 122°28'2 0.3
2018-Apr-19 04:21N 37°57' W 122°31'3 7.5
2018-Apr-19 04:01N 37°55' W 122°28'3 6.1
2018-Apr-19 03:30N 37°52' W 122°27'511.0
2018-Apr-19 03:00N 37°48' W 122°24'511.0
2018-Apr-19 02:30N 37°52' W 122°27'510.8
2018-Apr-19 02:00N 37°48' W 122°23'4 8.4
2018-Apr-19 01:30N 37°51' W 122°27'1 1.7
2018-Apr-19 01:00N 37°51' W 122°26'3 5.7
2018-Apr-19 00:31N 37°48' W 122°24'5 9.8
2018-Apr-19 00:01N 37°52' W 122°27'510.7
2018-Apr-18 23:30N 37°48' W 122°23'0 0.6
2018-Apr-18 23:00N 37°48' W 122°23'917.7
2018-Apr-18 22:30N 37°56' W 122°29'1 3.0
2018-Apr-18 22:01N 37°57' W 122°31'0 0.0
2018-Apr-18 21:30N 37°57' W 122°31'0 0.0
2018-Apr-18 21:00N 37°57' W 122°31'0 0.0
2018-Apr-18 20:30N 37°57' W 122°31'0 0.0
2018-Apr-18 20:00N 37°57' W 122°31'0 0.0
2018-Apr-18 19:30N 37°57' W 122°31'0 0.0
2018-Apr-18 19:01N 37°57' W 122°31'0 0.0
2018-Apr-18 18:30N 37°57' W 122°31'0 0.2
2018-Apr-18 18:00N 37°57' W 122°30'1 1.8
2018-Apr-18 17:30N 37°56' W 122°30'612.7
2018-Apr-18 17:01N 37°52' W 122°24'3 5.8
2018-Apr-18 16:30N 37°49' W 122°24'5 9.2
2018-Apr-18 16:01N 37°52' W 122°27'510.8
2018-Apr-18 15:31N 37°48' W 122°24'510.6
2018-Apr-18 15:00N 37°52' W 122°27'4 7.1
2018-Apr-18 14:31N 37°50' W 122°24'1 1.5
2018-Apr-18 14:00N 37°50' W 122°25'3 6.5
2018-Apr-18 13:30N 37°52' W 122°27'510.8
2018-Apr-18 13:00N 37°48' W 122°24'511.0
2018-Apr-18 12:31N 37°52' W 122°27'3 6.3
2018-Apr-18 12:00N 37°55' W 122°28'3 0.3
2018-Apr-18 04:26N 37°57' W 122°31'2 5.4
2018-Apr-18 04:00N 37°56' W 122°28'3 6.7
2018-Apr-18 03:31N 37°52' W 122°27'510.9
2018-Apr-18 03:00N 37°48' W 122°24'511.0
2018-Apr-18 02:31N 37°52' W 122°27'510.9
2018-Apr-18 02:00N 37°48' W 122°23'510.0
2018-Apr-18 01:30N 37°52' W 122°27'4 7.7
2018-Apr-18 01:00N 37°49' W 122°24'1 1.7
2018-Apr-18 00:30N 37°49' W 122°24'5 9.6
2018-Apr-18 00:00N 37°52' W 122°27'510.9
2018-Apr-17 23:30N 37°48' W 122°23'1 1.1
2018-Apr-17 23:01N 37°48' W 122°24'714.9
2018-Apr-17 22:30N 37°55' W 122°28'3 5.7
2018-Apr-17 22:00N 37°57' W 122°31'0 0.0
2018-Apr-17 21:31N 37°57' W 122°31'0 0.0
2018-Apr-17 21:00N 37°57' W 122°31'0 0.0
2018-Apr-17 20:30N 37°57' W 122°31'0 0.0
2018-Apr-17 20:00N 37°57' W 122°31'0 0.0
2018-Apr-17 19:30N 37°57' W 122°31'0 0.0
2018-Apr-17 19:00N 37°57' W 122°31'0 0.0
2018-Apr-17 18:30N 37°57' W 122°31'0 0.0
2018-Apr-17 18:00N 37°57' W 122°31'1 1.5
2018-Apr-17 17:30N 37°56' W 122°30'713.3
2018-Apr-17 17:00N 37°52' W 122°24'3 5.2
2018-Apr-17 16:30N 37°49' W 122°24'4 7.8
2018-Apr-17 16:00N 37°52' W 122°27'510.2
2018-Apr-17 15:30N 37°48' W 122°24'510.9
2018-Apr-17 15:00N 37°52' W 122°27'4 7.6
2018-Apr-17 14:31N 37°50' W 122°24'1 2.3
2018-Apr-17 14:00N 37°50' W 122°25'3 5.7
2018-Apr-17 13:30N 37°52' W 122°27'510.6
2018-Apr-17 13:00N 37°48' W 122°24'511.0
2018-Apr-17 12:30N 37°52' W 122°27'4 8.8
2018-Apr-17 12:01N 37°56' W 122°30'1 0.1
2018-Apr-17 04:30N 37°57' W 122°31'3 5.5
2018-Apr-17 04:00N 37°55' W 122°28'3 6.3
2018-Apr-17 03:31N 37°52' W 122°27'510.7
2018-Apr-17 03:00N 37°48' W 122°24'511.0
2018-Apr-17 02:31N 37°52' W 122°27'510.8
2018-Apr-17 02:01N 37°48' W 122°23'4 8.6
2018-Apr-17 01:30N 37°51' W 122°27'2 3.2
2018-Apr-17 01:01N 37°50' W 122°25'2 3.2
2018-Apr-17 00:30N 37°49' W 122°24'4 8.4
2018-Apr-17 00:00N 37°52' W 122°27'510.7
2018-Apr-16 23:30N 37°48' W 122°23'0 1.0
2018-Apr-16 23:01N 37°48' W 122°24'815.7
2018-Apr-16 22:30N 37°56' W 122°28'2 4.5
2018-Apr-16 22:01N 37°57' W 122°31'0 0.0
2018-Apr-16 21:30N 37°57' W 122°31'0 0.0
2018-Apr-16 21:01N 37°57' W 122°31'0 0.1
2018-Apr-16 20:31N 37°57' W 122°30'0 0.1
2018-Apr-16 20:00N 37°57' W 122°31'0 0.1
2018-Apr-16 19:31N 37°57' W 122°30'0 0.0
2018-Apr-16 19:00N 37°57' W 122°30'0 0.1
2018-Apr-16 18:31N 37°57' W 122°31'0 0.1
2018-Apr-16 18:01N 37°57' W 122°30'0 0.4
2018-Apr-16 17:31N 37°57' W 122°30'714.0
2018-Apr-16 17:01N 37°52' W 122°24'2 4.6
2018-Apr-16 16:30N 37°49' W 122°24'4 7.8
2018-Apr-16 16:00N 37°52' W 122°27'510.7
2018-Apr-16 15:30N 37°48' W 122°24'510.8
2018-Apr-16 15:00N 37°52' W 122°27'4 7.6
2018-Apr-16 14:30N 37°50' W 122°24'1 1.3
2018-Apr-16 14:00N 37°50' W 122°24'4 7.1
2018-Apr-16 13:31N 37°52' W 122°27'510.9
2018-Apr-16 13:00N 37°48' W 122°24'510.9
2018-Apr-16 12:30N 37°52' W 122°27'5 9.6
2018-Apr-16 12:00N 37°57' W 122°30'0 0.0
2018-Apr-16 03:17N 37°57' W 122°31'2 8.0
2018-Apr-16 03:01N 37°56' W 122°28'917.3
2018-Apr-16 02:31N 37°48' W 122°24'2 4.0
2018-Apr-16 02:00N 37°50' W 122°25'4 7.2
2018-Apr-16 01:30N 37°51' W 122°29'510.8
2018-Apr-16 01:01N 37°48' W 122°24'0 0.0
2018-Apr-16 00:30N 37°48' W 122°24'917.1
2018-Apr-16 00:00N 37°56' W 122°28'2 3.7
2018-Apr-15 23:29N 37°57' W 122°30'613.1
2018-Apr-15 23:00N 37°52' W 122°25'4 8.7
2018-Apr-15 22:30N 37°48' W 122°24'0 0.1
2018-Apr-15 22:00N 37°48' W 122°24'0 0.0
2018-Apr-15 21:31N 37°48' W 122°24'815.9
2018-Apr-15 21:01N 37°55' W 122°27'3 5.9
2018-Apr-15 20:30N 37°57' W 122°31'510.9
2018-Apr-15 20:00N 37°53' W 122°25'611.2
2018-Apr-15 19:31N 37°48' W 122°24'815.7
2018-Apr-15 19:00N 37°55' W 122°27'3 6.1
2018-Apr-15 18:30N 37°57' W 122°31'0 0.0
2018-Apr-15 02:27N 37°57' W 122°31'3 6.2
2018-Apr-15 02:00N 37°55' W 122°28'816.4
2018-Apr-15 01:30N 37°48' W 122°24'0 0.7
2018-Apr-15 01:00N 37°48' W 122°23'510.8
2018-Apr-15 00:30N 37°51' W 122°29'1 1.2
2018-Apr-15 00:01N 37°51' W 122°28'5 9.7
2018-Apr-14 23:30N 37°48' W 122°24'3 6.4
2018-Apr-14 23:01N 37°50' W 122°26'  

Dump ship's entire track history